Time;durP1;ratioP1;P1;durP2;ratioP2;P2;SDS_P1;SDS_P2;PMS_P1;PMS_P2;Temp;Humidity;BMP_temperature;BMP_pressure;BME280_temperature;BME280_humidity;BME280_pressure;Samples;Min_cycle;Max_cycle;Signal;HPM_P1;HPM_P2
2021/01/18 00:01:32;;;;;;;16.27;13.10;;;;;;;7.97;44.26;101225.16;4913284;28;117973;-62
2021/01/18 00:03:58;;;;;;;15.85;13.32;;;;;;;8.00;44.12;101225.53;4902506;28;108534;-63
2021/01/18 00:06:24;;;;;;;16.17;13.20;;;;;;;7.99;44.13;101225.75;4920248;28;105433;-62
2021/01/18 00:08:51;;;;;;;16.02;12.90;;;;;;;8.00;44.56;101222.84;4921017;28;98270;-62
2021/01/18 00:11:18;;;;;;;16.38;13.73;;;;;;;7.98;44.00;101224.13;4920462;28;122360;-62
2021/01/18 00:13:45;;;;;;;17.75;13.90;;;;;;;7.96;44.07;101223.53;4922068;28;107973;-63
2021/01/18 00:16:15;;;;;;;17.67;13.38;;;;;;;8.03;43.82;101217.00;4905227;28;98732;-62
2021/01/18 00:18:42;;;;;;;15.38;12.85;;;;;;;8.10;43.63;101217.72;4895259;28;98154;-63
2021/01/18 00:21:08;;;;;;;16.10;13.18;;;;;;;8.08;43.75;101211.75;4921108;28;122967;-62
2021/01/18 00:23:39;;;;;;;14.40;12.60;;;;;;;8.03;43.76;101211.63;4904205;28;99664;-63
2021/01/18 00:26:06;;;;;;;15.85;12.95;;;;;;;8.03;43.59;101208.97;4923300;28;98676;-62
2021/01/18 00:28:32;;;;;;;15.63;12.80;;;;;;;8.05;43.57;101214.06;4923747;28;97906;-62
2021/01/18 00:31:00;;;;;;;15.65;12.70;;;;;;;8.06;43.49;101205.81;4904956;28;98086;-62
2021/01/18 00:33:26;;;;;;;15.40;12.75;;;;;;;8.09;43.68;101213.38;4923468;28;99360;-63
2021/01/18 00:35:52;;;;;;;15.13;12.60;;;;;;;8.07;43.29;101199.38;4922793;28;101696;-63
2021/01/18 00:38:18;;;;;;;16.00;12.48;;;;;;;8.07;43.37;101191.31;4923027;28;97881;-63
2021/01/18 00:40:44;;;;;;;14.77;12.30;;;;;;;8.09;43.40;101199.94;4922948;28;102790;-63
2021/01/18 00:43:10;;;;;;;15.32;12.23;;;;;;;8.09;43.08;101205.31;4913880;28;126898;-62
2021/01/18 00:45:36;;;;;;;14.13;12.00;;;;;;;8.03;43.32;101213.50;4904925;28;111599;-63
2021/01/18 00:48:03;;;;;;;13.15;11.60;;;;;;;8.07;43.32;101207.44;4903073;28;126957;-62
2021/01/18 00:50:30;;;;;;;14.20;11.60;;;;;;;8.01;43.22;101199.47;4905574;28;97916;-63
2021/01/18 00:52:58;;;;;;;14.00;11.85;;;;;;;8.03;43.27;101206.28;4914710;28;98633;-62
2021/01/18 00:55:24;;;;;;;14.07;11.05;;;;;;;8.01;43.27;101202.16;4911230;28;114717;-62
2021/01/18 00:57:53;;;;;;;12.88;11.15;;;;;;;7.95;43.30;101201.25;4902630;28;98075;-63
2021/01/18 01:00:24;;;;;;;13.35;10.63;;;;;;;7.96;43.05;101204.75;4900738;28;120227;-62
2021/01/18 01:02:51;;;;;;;13.10;11.05;;;;;;;7.96;43.24;101192.13;4899604;28;98086;-63
2021/01/18 01:05:19;;;;;;;13.25;10.77;;;;;;;7.96;43.30;101196.69;4901807;28;118051;-62
2021/01/18 01:07:52;;;;;;;14.13;10.98;;;;;;;7.96;42.89;101189.44;4883355;28;105601;-62
2021/01/18 01:10:29;;;;;;;14.13;11.50;;;;;;;7.97;43.14;101185.72;4885380;28;97860;-63
2021/01/18 01:12:59;;;;;;;13.05;10.43;;;;;;;8.00;43.14;101179.88;4887683;28;99218;-62
2021/01/18 01:15:25;;;;;;;12.85;10.85;;;;;;;7.92;43.24;101182.91;4902393;28;111570;-63
2021/01/18 01:17:51;;;;;;;13.00;10.68;;;;;;;7.96;43.01;101181.41;4894369;28;98150;-63
2021/01/18 01:20:19;;;;;;;13.77;10.95;;;;;;;7.98;43.13;101190.03;4902606;28;123017;-63
2021/01/18 01:22:45;;;;;;;13.15;10.98;;;;;;;7.94;43.26;101185.34;4901779;28;98400;-62
2021/01/18 01:25:13;;;;;;;13.13;10.48;;;;;;;7.93;43.28;101181.03;4903522;28;109266;-62
2021/01/18 01:27:40;;;;;;;12.55;10.40;;;;;;;7.85;43.14;101185.69;4901743;28;98220;-63
2021/01/18 01:30:11;;;;;;;12.05;10.23;;;;;;;7.88;43.14;101179.88;4903747;28;97691;-62
2021/01/18 01:32:39;;;;;;;12.70;10.30;;;;;;;7.83;42.92;101187.81;4890643;28;118422;-62
2021/01/18 01:35:07;;;;;;;12.00;9.68;;;;;;;7.81;43.31;101178.34;4899488;28;99256;-63
2021/01/18 01:37:34;;;;;;;11.23;9.32;;;;;;;7.84;43.20;101169.84;4875089;28;98833;-62
2021/01/18 01:40:00;;;;;;;12.05;9.52;;;;;;;7.83;42.88;101169.03;4898458;28;105232;-63
2021/01/18 01:42:26;;;;;;;11.35;9.35;;;;;;;7.78;42.97;101160.84;4901270;28;97928;-63
2021/01/18 01:44:52;;;;;;;12.38;9.90;;;;;;;7.70;43.24;101155.78;4902648;28;109585;-62
2021/01/18 01:47:30;;;;;;;11.65;9.60;;;;;;;7.69;43.10;101156.03;4898133;28;98965;-63
2021/01/18 01:49:56;;;;;;;11.13;9.50;;;;;;;7.67;43.19;101158.97;4895432;28;98095;-63
2021/01/18 01:52:23;;;;;;;12.05;9.85;;;;;;;7.63;43.28;101160.47;4896593;28;98499;-63
2021/01/18 01:54:55;;;;;;;13.20;9.45;;;;;;;7.64;43.20;101159.41;4904005;28;98686;-62
2021/01/18 01:57:21;;;;;;;12.43;9.57;;;;;;;7.68;43.13;101159.78;4903150;28;98419;-63
2021/01/18 01:59:47;;;;;;;11.80;9.77;;;;;;;7.62;43.26;101156.13;4903665;28;97746;-63
2021/01/18 02:02:14;;;;;;;11.40;9.68;;;;;;;7.64;43.07;101159.41;4901277;28;126086;-62
2021/01/18 02:04:41;;;;;;;11.63;9.63;;;;;;;7.58;43.13;101160.34;4921824;28;98301;-63
2021/01/18 02:07:27;;;;;;;11.75;10.38;;;;;;;7.56;43.19;101160.56;4903556;28;98145;-62
2021/01/18 02:09:56;;;;;;;11.82;9.70;;;;;;;7.52;43.15;101161.25;4921925;28;97773;-62
2021/01/18 02:12:23;;;;;;;11.27;9.63;;;;;;;7.53;43.11;101162.91;4920808;28;127874;-63
2021/01/18 02:15:10;;;;;;;11.23;9.50;;;;;;;7.45;43.15;101166.72;4921082;28;128704;-62
2021/01/18 02:18:41;;;;;;;12.52;9.73;;;;;;;7.44;43.43;101166.97;4921269;28;98568;-62
2021/01/18 02:21:31;;;;;;;13.35;9.85;;;;;;;7.44;43.21;101170.47;4859187;28;98122;-62
2021/01/18 02:24:46;;;;;;;11.40;9.73;;;;;;;7.48;43.08;101152.84;4821700;28;118983;-62
2021/01/18 02:27:46;;;;;;;12.40;9.77;;;;;;;7.46;43.29;101156.81;4919966;28;98214;-63
2021/01/18 02:30:33;;;;;;;12.60;9.68;;;;;;;7.40;43.42;101152.38;4922800;28;97697;-62
2021/01/18 02:33:23;;;;;;;11.05;9.23;;;;;;;7.41;43.12;101152.13;4919141;28;97958;-62
2021/01/18 02:36:32;;;;;;;11.68;9.43;;;;;;;7.43;42.88;101152.75;4918156;28;117445;-62
2021/01/18 02:39:18;;;;;;;12.98;10.02;;;;;;;7.39;43.08;101151.56;4903663;28;117261;-62
2021/01/18 02:41:57;;;;;;;12.00;9.40;;;;;;;7.38;43.14;101148.03;4920428;28;115493;-63
2021/01/18 02:44:25;;;;;;;12.13;9.88;;;;;;;7.41;43.03;101144.09;4921749;28;97597;-62
2021/01/18 02:46:51;;;;;;;11.35;9.13;;;;;;;7.44;42.69;101142.81;4903052;28;98739;-62
2021/01/18 02:49:19;;;;;;;11.73;9.90;;;;;;;7.50;42.74;101145.38;4921003;28;129139;-62
2021/01/18 02:52:10;;;;;;;13.20;9.82;;;;;;;7.48;42.51;101141.31;4902875;28;119309;-63
2021/01/18 02:54:36;;;;;;;12.63;9.95;;;;;;;7.53;42.94;101147.63;4919511;28;97910;-62
2021/01/18 02:57:05;;;;;;;12.02;10.18;;;;;;;7.50;42.46;101141.88;4919473;28;128222;-63
2021/01/18 02:59:31;;;;;;;11.38;9.93;;;;;;;7.49;42.74;101143.75;4903169;28;98370;-63
2021/01/18 03:02:16;;;;;;;13.10;10.10;;;;;;;7.50;42.48;101139.19;4901574;28;117096;-62
2021/01/18 03:05:22;;;;;;;12.90;10.10;;;;;;;7.50;42.60;101136.53;4921014;28;97888;-62
2021/01/18 03:08:15;;;;;;;12.82;9.93;;;;;;;7.52;42.53;101139.81;4903859;28;99338;-62
2021/01/18 03:10:47;;;;;;;11.02;9.45;;;;;;;7.53;42.65;101141.44;4920950;28;99242;-62
2021/01/18 03:13:36;;;;;;;12.05;10.02;;;;;;;7.51;42.59;101130.94;4902169;28;113626;-62
2021/01/18 03:16:14;;;;;;;11.98;10.23;;;;;;;7.58;42.36;101134.34;4902357;28;114036;-62
2021/01/18 03:18:40;;;;;;;12.32;10.35;;;;;;;7.62;42.71;101137.34;4902737;28;98273;-63
2021/01/18 03:21:06;;;;;;;12.43;10.18;;;;;;;7.61;42.77;101135.72;4885110;28;128851;-62
2021/01/18 03:23:32;;;;;;;11.88;10.15;;;;;;;7.60;42.50;101128.72;4917211;28;127743;-63
2021/01/18 03:25:58;;;;;;;12.90;10.40;;;;;;;7.58;42.97;101122.75;4918102;28;121677;-62
2021/01/18 03:28:24;;;;;;;11.82;10.10;;;;;;;7.67;42.71;101125.94;4920227;28;98353;-63
2021/01/18 03:30:51;;;;;;;12.43;10.15;;;;;;;7.61;42.87;101123.13;4921109;28;102785;-63
2021/01/18 03:33:17;;;;;;;11.82;9.80;;;;;;;7.60;42.87;101124.19;4919450;28;127589;-63
2021/01/18 03:35:43;;;;;;;10.68;9.48;;;;;;;7.64;42.73;101127.22;4920608;28;97888;-62
2021/01/18 03:38:09;;;;;;;11.70;9.52;;;;;;;7.67;42.62;101131.31;4919732;28;99281;-63
2021/01/18 03:40:36;;;;;;;11.32;9.73;;;;;;;7.67;42.58;101136.69;4919142;28;125926;-63
2021/01/18 03:43:09;;;;;;;12.18;9.95;;;;;;;7.67;42.44;101134.81;4901558;28;98171;-62
2021/01/18 03:45:40;;;;;;;11.50;9.43;;;;;;;7.70;42.69;101128.97;4920608;28;102941;-63
2021/01/18 03:48:07;;;;;;;11.27;9.50;;;;;;;7.70;42.58;101120.91;4884381;28;102223;-63
2021/01/18 03:50:34;;;;;;;10.60;9.48;;;;;;;7.69;42.85;101124.66;4895874;28;100457;-63
2021/01/18 03:53:00;;;;;;;11.13;9.63;;;;;;;7.69;42.54;101129.19;4921854;28;98141;-62
2021/01/18 03:55:26;;;;;;;11.05;9.50;;;;;;;7.71;42.66;101121.75;4922655;28;106304;-63
2021/01/18 03:57:53;;;;;;;11.13;8.93;;;;;;;7.74;42.82;101119.41;4921525;28;110180;-63
2021/01/18 04:00:25;;;;;;;10.23;8.80;;;;;;;7.77;42.55;101120.81;4921781;28;114990;-63
2021/01/18 04:02:52;;;;;;;11.53;9.03;;;;;;;7.75;42.61;101117.56;4922524;28;113939;-62
2021/01/18 04:05:18;;;;;;;11.35;9.45;;;;;;;7.78;42.71;101120.59;4905429;28;97901;-62
2021/01/18 04:07:45;;;;;;;11.88;8.98;;;;;;;7.79;42.52;101118.72;4923465;28;98598;-62
2021/01/18 04:10:12;;;;;;;10.45;9.00;;;;;;;7.81;42.66;101111.22;4922843;28;115454;-62
2021/01/18 04:12:40;;;;;;;11.05;9.25;;;;;;;7.82;43.05;101115.53;4923055;28;97842;-62
2021/01/18 04:15:07;;;;;;;10.65;8.85;;;;;;;7.83;42.97;101109.16;4923431;28;97776;-63
2021/01/18 04:17:33;;;;;;;12.30;9.48;;;;;;;7.85;42.95;101113.22;4923820;28;98483;-62
2021/01/18 04:19:59;;;;;;;10.60;8.63;;;;;;;7.88;43.20;101104.69;4922947;28;101659;-63
2021/01/18 04:22:25;;;;;;;12.02;9.23;;;;;;;7.89;42.76;101113.56;4922512;28;128188;-63
2021/01/18 04:24:51;;;;;;;11.18;9.30;;;;;;;7.88;43.11;101112.75;4924639;28;122156;-60
2021/01/18 04:27:17;;;;;;;10.80;9.00;;;;;;;7.90;42.78;101103.66;4919879;28;98807;-62
2021/01/18 04:29:43;;;;;;;11.13;9.00;;;;;;;7.87;43.46;101099.59;4921904;28;126828;-62
2021/01/18 04:32:12;;;;;;;11.82;9.82;;;;;;;7.88;43.14;101093.16;4921508;28;125874;-63
2021/01/18 04:34:38;;;;;;;10.93;8.55;;;;;;;7.93;43.10;101095.13;4922034;28;97940;-63
2021/01/18 04:37:04;;;;;;;10.48;9.00;;;;;;;7.88;43.03;101096.66;4922803;28;99541;-62
2021/01/18 04:39:30;;;;;;;10.93;8.95;;;;;;;7.96;43.16;101086.63;4922544;28;127914;-62
2021/01/18 04:41:58;;;;;;;10.90;9.40;;;;;;;7.94;43.10;101088.69;4921766;28;127437;-63
2021/01/18 04:44:25;;;;;;;12.02;9.93;;;;;;;7.95;42.87;101091.16;4922940;28;97790;-62
2021/01/18 04:46:51;;;;;;;12.95;10.82;;;;;;;7.97;43.06;101098.97;4904554;28;106581;-63
2021/01/18 04:49:17;;;;;;;12.40;10.20;;;;;;;8.00;42.87;101095.84;4887851;28;128256;-63
2021/01/18 04:51:53;;;;;;;11.55;10.35;;;;;;;7.98;43.28;101092.59;4919618;28;126949;-62
2021/01/18 04:54:25;;;;;;;13.27;10.65;;;;;;;7.98;43.20;101095.25;4922621;28;97927;-63
2021/01/18 04:57:12;;;;;;;13.18;10.52;;;;;;;7.98;43.44;101090.72;4922448;28;98905;-62
2021/01/18 04:59:49;;;;;;;12.48;10.30;;;;;;;7.99;43.39;101088.84;4922576;28;98344;-63
2021/01/18 05:02:19;;;;;;;12.43;10.48;;;;;;;8.01;43.27;101089.41;4922305;28;98530;-63
2021/01/18 05:04:47;;;;;;;12.38;10.38;;;;;;;8.01;43.49;101098.28;4923579;28;98008;-62
2021/01/18 05:07:35;;;;;;;12.57;10.10;;;;;;;8.00;43.34;101090.47;4919291;28;116528;-62
2021/01/18 05:10:09;;;;;;;11.68;9.63;;;;;;;8.01;43.24;101095.59;4921465;28;99278;-62
2021/01/18 05:12:40;;;;;;;12.40;10.02;;;;;;;8.04;43.43;101095.13;4910819;28;98300;-62
2021/01/18 05:15:07;;;;;;;11.20;9.40;;;;;;;8.01;43.32;101092.91;4891877;28;98261;-62
2021/01/18 05:17:47;;;;;;;11.00;8.93;;;;;;;8.03;43.27;101093.50;4922038;28;98601;-62
2021/01/18 05:20:15;;;;;;;11.02;9.48;;;;;;;8.03;43.12;101095.38;4919947;28;118021;-62
2021/01/18 05:22:49;;;;;;;10.93;9.23;;;;;;;8.03;43.48;101093.50;4921191;28;116483;-63
2021/01/18 05:25:16;;;;;;;9.73;8.55;;;;;;;8.07;43.39;101093.84;4922181;28;97885;-63
2021/01/18 05:28:02;;;;;;;10.43;8.95;;;;;;;8.04;43.52;101100.50;4904165;28;98456;-63
2021/01/18 05:30:34;;;;;;;10.40;8.85;;;;;;;8.08;43.62;101104.34;4920836;28;98476;-62
2021/01/18 05:33:12;;;;;;;9.90;8.50;;;;;;;8.11;43.43;101090.44;4904396;28;97868;-63
2021/01/18 05:35:40;;;;;;;11.10;8.82;;;;;;;8.05;43.74;101096.75;4922594;28;97806;-63
2021/01/18 05:38:11;;;;;;;10.57;8.63;;;;;;;8.11;43.80;101103.06;4921649;28;104163;-62
2021/01/18 05:40:50;;;;;;;10.70;8.75;;;;;;;8.15;43.59;101101.53;4922108;28;98822;-62
2021/01/18 05:43:18;;;;;;;11.32;8.98;;;;;;;8.14;43.65;101104.47;4920070;28;119675;-63
2021/01/18 05:45:46;;;;;;;10.57;8.90;;;;;;;8.13;43.65;101109.00;4904310;28;97920;-62
2021/01/18 05:48:13;;;;;;;9.52;8.52;;;;;;;8.16;43.81;101108.53;4920258;28;98856;-63
2021/01/18 05:50:39;;;;;;;10.25;8.63;;;;;;;8.19;43.89;101102.69;4920179;28;119798;-62
2021/01/18 05:53:29;;;;;;;10.60;8.90;;;;;;;8.11;43.92;101111.13;4915922;28;119429;-62
2021/01/18 05:55:55;;;;;;;10.57;9.02;;;;;;;8.15;44.01;101103.41;4905601;28;102355;-63
2021/01/18 05:58:47;;;;;;;11.45;8.55;;;;;;;8.19;44.04;101096.50;4892522;28;128268;-62
2021/01/18 06:01:13;;;;;;;10.57;8.97;;;;;;;8.18;43.96;101103.75;4879639;28;98544;-63
2021/01/18 06:03:39;;;;;;;11.70;8.68;;;;;;;8.24;43.65;101097.44;4882291;28;98130;-63
2021/01/18 06:06:05;;;;;;;10.73;8.75;;;;;;;8.23;43.78;101098.50;4881670;28;120449;-63
2021/01/18 06:08:31;;;;;;;10.10;8.85;;;;;;;8.25;43.88;101098.25;4887019;28;103432;-63
2021/01/18 06:11:03;;;;;;;11.07;9.05;;;;;;;8.32;43.79;101097.06;4900721;28;98648;-62
2021/01/18 06:13:33;;;;;;;10.70;8.65;;;;;;;8.34;43.85;101097.66;4867429;28;99965;-62
2021/01/18 06:16:02;;;;;;;10.57;9.25;;;;;;;8.37;43.58;101096.41;4884755;28;97930;-62
2021/01/18 06:18:32;;;;;;;10.65;8.90;;;;;;;8.42;43.67;101101.88;4901060;28;98304;-62
2021/01/18 06:20:59;;;;;;;10.35;8.90;;;;;;;8.43;44.06;101100.81;4901852;28;98450;-62
2021/01/18 06:23:25;;;;;;;11.60;9.38;;;;;;;8.49;43.76;101096.34;4901207;28;98060;-62
2021/01/18 06:25:52;;;;;;;11.25;9.43;;;;;;;8.48;43.78;101094.72;4901363;28;118863;-62
2021/01/18 06:28:29;;;;;;;11.65;8.82;;;;;;;8.48;43.74;101094.72;4902058;28;99346;-63
2021/01/18 06:31:00;;;;;;;10.43;9.05;;;;;;;8.48;43.63;101094.72;4901642;28;98779;-63
2021/01/18 06:33:46;;;;;;;11.23;9.15;;;;;;;8.50;43.98;101093.44;4899903;28;98291;-62
2021/01/18 06:36:21;;;;;;;10.95;8.38;;;;;;;8.56;43.77;101100.53;4900800;28;97762;-62
2021/01/18 06:38:59;;;;;;;10.30;8.95;;;;;;;8.55;43.52;101100.78;4891808;28;99035;-63
2021/01/18 06:41:29;;;;;;;10.48;8.75;;;;;;;8.53;43.96;101111.78;4901656;28;99250;-62
2021/01/18 06:43:55;;;;;;;10.05;8.50;;;;;;;8.54;43.88;101104.53;4893100;28;103388;-62
2021/01/18 06:46:32;;;;;;;9.57;8.45;;;;;;;8.54;44.20;101107.22;4903084;28;97888;-62
2021/01/18 06:48:59;;;;;;;10.00;8.48;;;;;;;8.56;44.37;101110.47;4861258;28;98231;-63
2021/01/18 06:51:29;;;;;;;10.48;8.98;;;;;;;8.57;44.57;101109.44;4841299;28;114201;-62
2021/01/18 06:53:57;;;;;;;10.77;9.23;;;;;;;8.59;44.05;101112.69;4893640;28;97891;-63
2021/01/18 06:56:22;;;;;;;9.63;8.63;;;;;;;8.59;44.10;101112.69;4897753;28;97971;-63
2021/01/18 06:59:04;;;;;;;10.70;9.20;;;;;;;8.61;44.69;101115.97;4918059;28;98032;-62
2021/01/18 07:01:40;;;;;;;11.27;9.05;;;;;;;8.62;44.30;101109.53;4918239;28;98275;-63
2021/01/18 07:04:14;;;;;;;11.05;9.20;;;;;;;8.60;43.99;101117.81;4902535;28;98053;-62
2021/01/18 07:06:44;;;;;;;11.57;9.43;;;;;;;8.61;44.25;101102.53;4903426;28;99041;-62
2021/01/18 07:09:13;;;;;;;11.25;9.65;;;;;;;8.63;44.39;101111.16;4903804;28;98819;-63
2021/01/18 07:11:39;;;;;;;11.25;9.27;;;;;;;8.65;45.01;101111.75;4917737;28;108011;-63
2021/01/18 07:14:11;;;;;;;13.35;10.35;;;;;;;8.64;44.89;101117.34;4906859;28;111725;-62
2021/01/18 07:16:39;;;;;;;11.20;9.77;;;;;;;8.67;45.01;101115.00;4901977;28;97803;-62
2021/01/18 07:19:06;;;;;;;11.40;9.80;;;;;;;8.68;44.71;101116.63;4918310;28;99186;-63
2021/01/18 07:22:02;;;;;;;10.88;9.50;;;;;;;8.73;44.53;101107.88;4916919;28;98688;-63
2021/01/18 07:24:30;;;;;;;12.23;9.75;;;;;;;8.76;45.01;101116.25;4918665;28;118431;-63
2021/01/18 07:27:04;;;;;;;11.93;9.75;;;;;;;8.78;45.05;101116.00;4919468;28;97757;-63
2021/01/18 07:29:32;;;;;;;10.55;9.25;;;;;;;8.81;45.38;101118.22;4921002;28;98341;-63
2021/01/18 07:31:59;;;;;;;13.00;10.38;;;;;;;8.82;45.51;101117.97;4917840;28;105907;-63
2021/01/18 07:34:28;;;;;;;11.63;10.15;;;;;;;8.84;46.00;101110.50;4921771;28;98090;-63
2021/01/18 07:37:05;;;;;;;12.52;10.48;;;;;;;8.85;46.18;101112.13;4906451;28;98041;-62
2021/01/18 07:39:38;;;;;;;12.32;10.73;;;;;;;8.88;46.30;101115.38;4913378;28;119330;-63
2021/01/18 07:42:05;;;;;;;;;;;;;;;8.85;46.18;101122.06;4921103;28;99122;-63
2021/01/18 07:44:44;;;;;;;12.77;10.45;;;;;;;8.85;46.74;101122.88;4920302;28;97893;-62
2021/01/18 07:47:12;;;;;;;12.20;10.27;;;;;;;8.89;46.83;101119.72;4918154;28;97823;-62
2021/01/18 07:49:47;;;;;;;12.60;10.85;;;;;;;8.88;47.05;101113.50;4920068;28;118926;-63
2021/01/18 07:52:15;;;;;;;13.63;11.20;;;;;;;8.94;47.53;101111.75;4914138;28;98396;-62
2021/01/18 07:54:41;;;;;;;13.15;11.48;;;;;;;8.94;47.92;101117.13;4914961;28;98917;-61
2021/01/18 07:57:30;;;;;;;13.63;11.65;;;;;;;9.03;47.73;101121.03;4897428;28;118276;-62
2021/01/18 08:00:18;;;;;;;13.95;11.95;;;;;;;8.98;47.84;101124.47;4893536;28;98963;-62
2021/01/18 08:02:52;;;;;;;14.65;12.40;;;;;;;8.97;48.20;101136.28;4900029;28;98844;-63
2021/01/18 08:05:33;;;;;;;14.40;12.65;;;;;;;8.95;48.34;101129.50;4898542;28;98110;-63
2021/01/18 08:08:09;;;;;;;15.93;13.07;;;;;;;8.97;48.37;101122.84;4899806;28;97694;-62
2021/01/18 08:11:15;;;;;;;14.90;12.73;;;;;;;8.99;49.20;101125.28;4900441;28;99210;-62
2021/01/18 08:14:00;;;;;;;15.13;13.18;;;;;;;8.98;48.82;101129.84;4891746;28;99565;-62
2021/01/18 08:16:39;;;;;;;14.88;12.77;;;;;;;9.03;49.39;101131.81;4901002;28;98613;-62
2021/01/18 08:19:15;;;;;;;16.08;13.82;;;;;;;9.03;49.59;101129.13;4892150;28;97759;-63
2021/01/18 08:21:45;;;;;;;16.42;13.45;;;;;;;9.04;49.44;101131.59;4883732;28;98724;-62
2021/01/18 08:24:27;;;;;;;14.75;13.10;;;;;;;9.07;49.82;101125.69;4892315;28;98356;-62
2021/01/18 08:27:03;;;;;;;17.25;14.52;;;;;;;9.09;49.74;101122.78;4900164;28;98896;-62
2021/01/18 08:29:51;;;;;;;14.93;13.32;;;;;;;9.13;50.02;101125.81;4894020;28;113224;-63
2021/01/18 08:32:30;;;;;;;17.05;13.70;;;;;;;9.16;49.99;101118.06;4896316;28;98968;-62
2021/01/18 08:35:18;;;;;;;15.75;13.20;;;;;;;9.21;50.44;101118.16;4899342;28;98471;-61
2021/01/18 08:38:07;;;;;;;16.30;13.27;;;;;;;9.23;49.90;101113.34;4902750;28;98079;-62
2021/01/18 08:40:41;;;;;;;15.10;13.32;;;;;;;9.25;50.46;101115.81;4903796;28;98050;-63
2021/01/18 08:43:07;;;;;;;14.50;12.68;;;;;;;9.31;50.71;101112.13;4903080;28;98113;-63
2021/01/18 08:45:38;;;;;;;15.82;13.15;;;;;;;9.33;50.66;101107.31;4904069;28;109576;-62
2021/01/18 08:48:06;;;;;;;15.25;13.25;;;;;;;9.40;50.50;101113.38;4902374;28;97926;-62
2021/01/18 08:50:52;;;;;;;17.13;14.35;;;;;;;9.43;50.63;101112.06;4904377;28;97828;-62
2021/01/18 08:53:34;;;;;;;17.10;13.65;;;;;;;9.46;51.50;101112.38;4894442;28;98386;-63
2021/01/18 08:56:04;;;;;;;17.52;15.05;;;;;;;9.46;51.17;101115.06;4917677;28;98165;-63
2021/01/18 08:58:34;;;;;;;18.75;15.32;;;;;;;9.42;51.54;101121.19;4914717;28;98118;-62
2021/01/18 09:01:00;;;;;;;17.50;14.85;;;;;;;9.45;51.93;101118.03;4918174;28;98305;-63
2021/01/18 09:03:26;;;;;;;18.30;14.90;;;;;;;9.43;52.21;101125.50;4913892;28;98744;-63
2021/01/18 09:05:59;;;;;;;17.98;14.93;;;;;;;9.47;51.44;101126.66;4921318;28;117442;-63
2021/01/18 09:08:27;;;;;;;16.23;13.77;;;;;;;9.50;51.68;101120.78;4907049;28;97998;-63
2021/01/18 09:11:04;;;;;;;17.13;15.10;;;;;;;9.48;52.21;101128.31;4901258;28;98025;-63
2021/01/18 09:13:32;;;;;;;16.33;13.88;;;;;;;9.48;52.41;101126.44;4922226;28;99251;-62
2021/01/18 09:16:00;;;;;;;16.98;13.93;;;;;;;9.52;52.96;101127.56;4922596;28;98801;-62
2021/01/18 09:18:27;;;;;;;17.23;14.48;;;;;;;9.54;52.60;101124.63;4904201;28;98053;-63
2021/01/18 09:20:54;;;;;;;17.13;14.52;;;;;;;9.55;53.00;101126.28;4922302;28;97841;-63
2021/01/18 09:23:20;;;;;;;17.67;15.02;;;;;;;9.54;53.35;101120.03;4921256;28;98348;-62
2021/01/18 09:25:46;;;;;;;17.65;14.55;;;;;;;9.62;52.62;101118.00;4920415;28;109475;-63
2021/01/18 09:28:15;;;;;;;17.73;14.35;;;;;;;9.66;52.86;101101.13;4903514;28;116505;-63
2021/01/18 09:30:43;;;;;;;17.38;14.05;;;;;;;9.78;52.42;101107.22;4904118;28;97872;-62
2021/01/18 09:33:13;;;;;;;16.75;14.27;;;;;;;9.84;52.49;101102.75;4917083;28;118311;-63
2021/01/18 09:35:43;;;;;;;17.42;13.75;;;;;;;9.88;52.98;101109.28;4921530;28;98213;-62
2021/01/18 09:38:10;;;;;;;18.13;15.00;;;;;;;9.88;52.47;101103.06;4917530;28;103708;-63
2021/01/18 09:40:38;;;;;;;18.25;14.88;;;;;;;9.89;53.17;101102.81;4917673;28;98340;-63
2021/01/18 09:43:05;;;;;;;16.83;14.68;;;;;;;9.90;52.75;101100.94;4902073;28;98923;-63
2021/01/18 09:45:32;;;;;;;17.77;14.30;;;;;;;9.91;53.36;101105.28;4921023;28;99206;-61
2021/01/18 09:48:05;;;;;;;17.42;14.45;;;;;;;9.86;53.42;101103.31;4912026;28;98778;-62
2021/01/18 09:50:31;;;;;;;17.45;14.48;;;;;;;9.88;53.62;101103.88;4922030;28;98090;-62
2021/01/18 09:52:57;;;;;;;16.70;13.85;;;;;;;9.89;53.70;101100.13;4918626;28;98921;-62
2021/01/18 09:55:46;;;;;;;17.40;14.65;;;;;;;9.91;53.68;101103.41;4903666;28;118325;-63
2021/01/18 09:58:24;;;;;;;18.00;14.48;;;;;;;9.91;54.16;101098.00;4921773;28;98428;-63
2021/01/18 10:00:50;;;;;;;17.48;14.13;;;;;;;9.94;54.29;101094.84;4922197;28;97795;-63
2021/01/18 10:03:35;;;;;;;17.38;14.60;;;;;;;9.97;54.00;101097.00;4902410;28;112030;-62
2021/01/18 10:06:09;;;;;;;17.98;14.40;;;;;;;10.01;53.96;101097.34;4904140;28;98632;-62
2021/01/18 10:08:38;;;;;;;18.45;14.80;;;;;;;10.02;54.14;101090.88;4895530;28;97800;-62
2021/01/18 10:11:04;;;;;;;17.85;14.52;;;;;;;10.05;54.68;101090.38;4918024;28;97821;-62
2021/01/18 10:13:30;;;;;;;19.77;15.18;;;;;;;10.04;54.44;101088.75;4895892;28;98436;-63
2021/01/18 10:16:12;;;;;;;18.55;14.80;;;;;;;10.01;54.58;101095.44;4903148;28;102750;-62
2021/01/18 10:18:40;;;;;;;18.58;15.20;;;;;;;10.01;54.47;101086.56;4912444;28;97868;-62
2021/01/18 10:21:08;;;;;;;18.50;15.38;;;;;;;10.01;54.72;101090.06;4919060;28;97938;-62
2021/01/18 10:23:39;;;;;;;19.10;15.35;;;;;;;10.02;54.56;101090.88;4920397;28;97755;-62
2021/01/18 10:26:28;;;;;;;18.48;15.60;;;;;;;10.02;54.87;101074.72;4920641;28;98443;-62
2021/01/18 10:29:02;;;;;;;19.85;15.90;;;;;;;10.05;54.54;101072.34;4882305;28;98542;-62
2021/01/18 10:31:30;;;;;;;18.67;15.63;;;;;;;10.05;55.08;101071.53;4883131;28;97930;-63
2021/01/18 10:34:16;;;;;;;20.23;16.02;;;;;;;10.15;54.39;101076.25;4910361;28;98148;-62
2021/01/18 10:36:46;;;;;;;18.60;15.40;;;;;;;10.21;55.09;101069.84;4920482;28;99261;-62
2021/01/18 10:39:30;;;;;;;20.40;16.20;;;;;;;10.18;54.68;101076.56;4921577;28;98244;-62
2021/01/18 10:42:08;;;;;;;19.23;16.10;;;;;;;10.22;54.93;101075.00;4903322;28;99419;-62
2021/01/18 10:44:34;;;;;;;18.75;15.93;;;;;;;10.25;54.37;101079.91;4921409;28;99303;-62
2021/01/18 10:47:01;;;;;;;19.55;15.63;;;;;;;10.28;55.23;101068.63;4921028;28;98579;-62
2021/01/18 10:49:31;;;;;;;19.02;15.35;;;;;;;10.27;55.42;101071.59;4921074;28;97850;-62
2021/01/18 10:52:08;;;;;;;20.30;15.65;;;;;;;10.28;55.31;101068.63;4920081;28;110111;-62
2021/01/18 10:54:35;;;;;;;20.83;16.60;;;;;;;10.33;55.26;101070.56;4919981;28;97874;-62
2021/01/18 10:57:01;;;;;;;20.83;16.20;;;;;;;10.40;55.27;101076.59;4919969;28;115546;-61
2021/01/18 10:59:28;;;;;;;21.23;16.20;;;;;;;10.43;55.22;101068.00;4903438;28;97983;-62
2021/01/18 11:02:07;;;;;;;21.25;16.25;;;;;;;10.51;55.10;101072.94;4919582;28;98174;-62
2021/01/18 11:04:35;;;;;;;19.38;15.93;;;;;;;10.60;54.99;101069.81;4910459;28;97834;-62
2021/01/18 11:07:02;;;;;;;18.00;15.48;;;;;;;10.63;55.02;101069.31;4901534;28;99054;-62
2021/01/18 11:09:32;;;;;;;18.70;15.88;;;;;;;10.59;55.49;101066.31;4918681;28;111384;-62
2021/01/18 11:12:00;;;;;;;20.33;15.68;;;;;;;10.61;55.37;101072.25;4917682;28;97878;-62
2021/01/18 11:14:27;;;;;;;20.08;15.90;;;;;;;10.61;55.34;101072.25;4914197;28;98814;-62
2021/01/18 11:17:09;;;;;;;18.30;15.50;;;;;;;10.61;55.91;101060.63;4919169;28;99003;-62
2021/01/18 11:19:35;;;;;;;18.20;14.70;;;;;;;10.65;55.78;101059.06;4914476;28;97864;-62
2021/01/18 11:22:01;;;;;;;19.23;14.88;;;;;;;10.67;55.69;101055.06;4901222;28;97841;-62
2021/01/18 11:24:27;;;;;;;19.00;15.38;;;;;;;10.71;55.58;101066.97;4911428;28;115387;-62
2021/01/18 11:26:53;;;;;;;17.35;14.63;;;;;;;10.82;55.46;101071.41;4919156;28;128272;-62
2021/01/18 11:29:20;;;;;;;17.98;14.55;;;;;;;10.89;55.88;101062.31;4920642;28;98713;-62
2021/01/18 11:31:47;;;;;;;17.90;14.35;;;;;;;10.89;55.42;101067.69;4921290;28;98144;-62
2021/01/18 11:34:14;;;;;;;17.63;13.57;;;;;;;10.94;56.13;101060.47;4920764;28;101605;-62
2021/01/18 11:36:40;;;;;;;17.38;14.38;;;;;;;11.01;55.58;101054.88;4901725;28;117672;-62
2021/01/18 11:39:07;;;;;;;18.63;13.90;;;;;;;11.13;55.42;101049.31;4921064;28;97872;-63